Coral Crystal — 3FVW3 — position and weather

sailwx.info

Track history (hours):
 
Tides and Currents Weather Stations Pressure Air Temp Water Temp Dewpoint Dewpoint Depression Visibility Wind Speed Wind Dir Waves Ship Positions

Coral Crystal

Last reported at 2017-Sep-09 12:19 UTC. Time now 2017-Sep-21 12:26 UTC.
Position S 27°35' E 153°54'.
Warning: this ship's position is 12 days out of date.

Length 225 m; draft 11.9 m.

Type: Cargo ship. MMSI: 373789000.

Date/timePositionNaut miles runAvg speedWind from/ knotsBaromVisibWave heightAir tempDewpointWater temp
2017-Sep-09 12:19S 27°35' E 153°54'412.0
2017-Sep-09 11:59S 27°39' E 153°54'712.0
2017-Sep-09 11:24S 27°46' E 153°54'512.1
2017-Sep-09 10:58S 27°52' E 153°54'28512.2
2017-Sep-08 11:29S 32°31' E 152°45'613.3
2017-Sep-08 11:00S 32°35' E 152°39'713.5
2017-Sep-08 10:30S 32°40' E 152°34'713.4
2017-Sep-08 10:00S 32°45' E 152°29'713.5
2017-Sep-08 09:30S 32°50' E 152°23'612.4
2017-Sep-08 09:00S 32°53' E 152°17'713.2
2017-Sep-08 08:30S 32°55' E 152°09'713.4
2017-Sep-08 08:00S 32°56' E 152°01'612.6
2017-Sep-08 07:30S 32°57' E 151°54'4 8.4
2017-Sep-08 07:00S 32°56' E 151°49'2 4.9
2017-Sep-08 06:30S 32°55' E 151°47'2 3.3
2017-Sep-08 06:00S 32°53' E 151°46'0 0.4
2017-Sep-08 05:30S 32°53' E 151°46'0 0.0
2017-Sep-08 05:00S 32°53' E 151°46'0 0.0
2017-Sep-08 04:30S 32°53' E 151°46'0 0.0
2017-Sep-08 04:00S 32°53' E 151°46'0 0.0
2017-Sep-08 02:36S 32°53' E 151°46'0 0.1
2017-Sep-08 02:30S 32°53' E 151°46'0 0.0
2017-Sep-08 02:00S 32°53' E 151°46'0 0.0
2017-Sep-08 01:30S 32°53' E 151°46'0 0.0
2017-Sep-08 01:00S 32°53' E 151°46'0 0.0
2017-Sep-08 00:30S 32°53' E 151°46'0 0.0
2017-Sep-08 00:00S 32°53' E 151°46'0 0.0
2017-Sep-07 23:30S 32°53' E 151°46'0 0.0
2017-Sep-07 23:00S 32°53' E 151°46'0 0.0
2017-Sep-07 22:30S 32°53' E 151°46'0 0.0
2017-Sep-07 22:00S 32°53' E 151°46'0 0.0
2017-Sep-07 21:30S 32°53' E 151°46'0 0.0
2017-Sep-07 21:00S 32°53' E 151°46'0 0.0
2017-Sep-07 20:30S 32°53' E 151°46'0 0.0
2017-Sep-07 20:00S 32°53' E 151°46'0 0.0
2017-Sep-07 19:30S 32°53' E 151°46'0 0.0
2017-Sep-07 19:00S 32°53' E 151°46'0 0.0
2017-Sep-07 18:30S 32°53' E 151°46'0 0.0
2017-Sep-07 18:00S 32°53' E 151°46'0 0.0
2017-Sep-07 17:30S 32°53' E 151°46'0 0.0
2017-Sep-07 17:00S 32°53' E 151°46'0 0.0
2017-Sep-07 16:30S 32°53' E 151°46'0 0.0
2017-Sep-07 16:00S 32°53' E 151°46'0 0.0
2017-Sep-07 15:30S 32°53' E 151°46'0 0.0
2017-Sep-07 15:00S 32°53' E 151°46'0 0.0
2017-Sep-07 14:30S 32°53' E 151°46'0 0.2
2017-Sep-07 14:00S 32°53' E 151°46'2 3.8
2017-Sep-07 13:30S 32°55' E 151°47'3 6.7
2017-Sep-07 13:00S 32°56' E 151°51'4 7.4
2017-Sep-07 12:30S 32°58' E 151°54'2 4.2
2017-Sep-07 12:00S 32°58' E 151°56'4 8.5
2017-Sep-07 11:30S 32°57' E 152°01'713.5
2017-Sep-07 11:00S 32°54' E 152°09'713.4
2017-Sep-07 10:30S 32°52' E 152°16'713.8
2017-Sep-07 10:01S 32°50' E 152°24'714.0
2017-Sep-07 09:30S 32°46' E 152°30'714.1
2017-Sep-07 09:00S 32°41' E 152°37'714.3
2017-Sep-07 08:30S 32°37' E 152°44'714.0
2017-Sep-07 08:00S 32°33' E 152°50'  
2017-Sep-03 15:58S 29°29' E 153°47'714.2
2017-Sep-03 15:30S 29°22' E 153°48'2814.2
2017-Sep-03 13:34S 28°55' E 153°53'214.3
2017-Sep-03 13:27S 28°53' E 153°53'914.4
2017-Sep-03 12:51S 28°45' E 153°53'514.5
2017-Sep-03 12:30S 28°40' E 153°54'714.9
2017-Sep-03 12:00S 28°32' E 153°54'714.9
2017-Sep-03 11:30S 28°25' E 153°54'714.7
2017-Sep-03 11:00S 28°18' E 153°54'714.3
2017-Sep-03 10:30S 28°10' E 153°55'714.1
2017-Sep-03 10:00S 28°03' E 153°55'713.9
2017-Sep-03 09:30S 27°56' E 153°55'713.8
2017-Sep-03 09:01S 27°50' E 153°55'713.8
2017-Sep-03 08:31S 27°43' E 153°56'  
Track history (hours):
 
Tides and Currents Weather Stations Pressure Air Temp Water Temp Dewpoint Dewpoint Depression Visibility Wind Speed Wind Dir Waves Ship Positions

Coral Crystal

Last reported at 2017-Sep-09 12:19 UTC. Time now 2017-Sep-21 12:26 UTC.
Position S 27°35' E 153°54'.
Warning: this ship's position is 12 days out of date.

Length 225 m; draft 11.9 m.

Type: Cargo ship. MMSI: 373789000.

Date/timePositionNaut miles runAvg speedWind from/ knotsBaromVisibWave heightAir tempDewpointWater temp
2017-Sep-09 12:19S 27°35' E 153°54'412.0
2017-Sep-09 11:59S 27°39' E 153°54'712.0
2017-Sep-09 11:24S 27°46' E 153°54'512.1
2017-Sep-09 10:58S 27°52' E 153°54'28512.2
2017-Sep-08 11:29S 32°31' E 152°45'613.3
2017-Sep-08 11:00S 32°35' E 152°39'713.5
2017-Sep-08 10:30S 32°40' E 152°34'713.4
2017-Sep-08 10:00S 32°45' E 152°29'713.5
2017-Sep-08 09:30S 32°50' E 152°23'612.4
2017-Sep-08 09:00S 32°53' E 152°17'713.2
2017-Sep-08 08:30S 32°55' E 152°09'713.4
2017-Sep-08 08:00S 32°56' E 152°01'612.6
2017-Sep-08 07:30S 32°57' E 151°54'4 8.4
2017-Sep-08 07:00S 32°56' E 151°49'2 4.9
2017-Sep-08 06:30S 32°55' E 151°47'2 3.3
2017-Sep-08 06:00S 32°53' E 151°46'0 0.4
2017-Sep-08 05:30S 32°53' E 151°46'0 0.0
2017-Sep-08 05:00S 32°53' E 151°46'0 0.0
2017-Sep-08 04:30S 32°53' E 151°46'0 0.0
2017-Sep-08 04:00S 32°53' E 151°46'0 0.0
2017-Sep-08 02:36S 32°53' E 151°46'0 0.1
2017-Sep-08 02:30S 32°53' E 151°46'0 0.0
2017-Sep-08 02:00S 32°53' E 151°46'0 0.0
2017-Sep-08 01:30S 32°53' E 151°46'0 0.0
2017-Sep-08 01:00S 32°53' E 151°46'0 0.0
2017-Sep-08 00:30S 32°53' E 151°46'0 0.0
2017-Sep-08 00:00S 32°53' E 151°46'0 0.0
2017-Sep-07 23:30S 32°53' E 151°46'0 0.0
2017-Sep-07 23:00S 32°53' E 151°46'0 0.0
2017-Sep-07 22:30S 32°53' E 151°46'0 0.0
2017-Sep-07 22:00S 32°53' E 151°46'0 0.0
2017-Sep-07 21:30S 32°53' E 151°46'0 0.0
2017-Sep-07 21:00S 32°53' E 151°46'0 0.0
2017-Sep-07 20:30S 32°53' E 151°46'0 0.0
2017-Sep-07 20:00S 32°53' E 151°46'0 0.0
2017-Sep-07 19:30S 32°53' E 151°46'0 0.0
2017-Sep-07 19:00S 32°53' E 151°46'0 0.0
2017-Sep-07 18:30S 32°53' E 151°46'0 0.0
2017-Sep-07 18:00S 32°53' E 151°46'0 0.0
2017-Sep-07 17:30S 32°53' E 151°46'0 0.0
2017-Sep-07 17:00S 32°53' E 151°46'0 0.0
2017-Sep-07 16:30S 32°53' E 151°46'0 0.0
2017-Sep-07 16:00S 32°53' E 151°46'0 0.0
2017-Sep-07 15:30S 32°53' E 151°46'0 0.0
2017-Sep-07 15:00S 32°53' E 151°46'0 0.0
2017-Sep-07 14:30S 32°53' E 151°46'0 0.2
2017-Sep-07 14:00S 32°53' E 151°46'2 3.8
2017-Sep-07 13:30S 32°55' E 151°47'3 6.7
2017-Sep-07 13:00S 32°56' E 151°51'4 7.4
2017-Sep-07 12:30S 32°58' E 151°54'2 4.2
2017-Sep-07 12:00S 32°58' E 151°56'4 8.5
2017-Sep-07 11:30S 32°57' E 152°01'713.5
2017-Sep-07 11:00S 32°54' E 152°09'713.4
2017-Sep-07 10:30S 32°52' E 152°16'713.8
2017-Sep-07 10:01S 32°50' E 152°24'714.0
2017-Sep-07 09:30S 32°46' E 152°30'714.1
2017-Sep-07 09:00S 32°41' E 152°37'714.3
2017-Sep-07 08:30S 32°37' E 152°44'714.0
2017-Sep-07 08:00S 32°33' E 152°50'  
2017-Sep-03 15:58S 29°29' E 153°47'714.2
2017-Sep-03 15:30S 29°22' E 153°48'2814.2
2017-Sep-03 13:34S 28°55' E 153°53'214.3
2017-Sep-03 13:27S 28°53' E 153°53'914.4
2017-Sep-03 12:51S 28°45' E 153°53'514.5
2017-Sep-03 12:30S 28°40' E 153°54'714.9
2017-Sep-03 12:00S 28°32' E 153°54'714.9
2017-Sep-03 11:30S 28°25' E 153°54'714.7
2017-Sep-03 11:00S 28°18' E 153°54'714.3
2017-Sep-03 10:30S 28°10' E 153°55'714.1
2017-Sep-03 10:00S 28°03' E 153°55'713.9
2017-Sep-03 09:30S 27°56' E 153°55'713.8
2017-Sep-03 09:01S 27°50' E 153°55'713.8
2017-Sep-03 08:31S 27°43' E 153°56'  

Dump ship's entire track history